createdAt,value
2023-05-24T00:00:34.195Z,99.9989
2023-05-24T00:01:36.000Z,99.9875
2023-05-24T00:02:37.066Z,99.9175
2023-05-24T00:03:38.528Z,99.8461
2023-05-24T00:04:38.890Z,99.8262
2023-05-24T00:06:40.324Z,99.7366
2023-05-24T00:14:45.227Z,99.6856
2023-05-24T00:19:46.694Z,99.7010
2023-05-24T00:20:47.331Z,99.7118
2023-05-24T00:21:47.808Z,99.7340
2023-05-24T00:22:49.358Z,99.7330
2023-05-24T00:23:49.485Z,99.7236
2023-05-24T00:24:50.817Z,99.7037
2023-05-24T00:28:52.056Z,99.6797
2023-05-24T00:29:52.771Z,99.6370
2023-05-24T00:31:56.319Z,99.6753
2023-05-24T00:36:58.867Z,99.8215
2023-05-24T00:37:59.868Z,99.8330
2023-05-24T00:39:00.994Z,99.8243
2023-05-24T00:40:02.460Z,99.8367
2023-05-24T00:43:03.436Z,99.8631
2023-05-24T00:46:05.368Z,99.9209
2023-05-24T00:47:05.472Z,99.9660
2023-05-24T00:48:05.865Z,99.9766
2023-05-24T00:49:07.679Z,99.9797
2023-05-24T00:50:09.040Z,99.9684
2023-05-24T00:52:10.466Z,99.9458
2023-05-24T00:53:10.461Z,99.9566
2023-05-24T00:57:11.098Z,99.9310
2023-05-24T00:58:12.014Z,99.8486
2023-05-24T00:59:12.986Z,99.8454
2023-05-24T01:00:14.458Z,99.8652
2023-05-24T01:01:15.002Z,99.8137
2023-05-24T01:03:15.181Z,99.8346
2023-05-24T01:04:15.645Z,99.8333
2023-05-24T01:05:16.851Z,99.8640
2023-05-24T01:06:18.358Z,99.8754
2023-05-24T01:07:18.773Z,99.8696
2023-05-24T01:08:20.248Z,99.8738
2023-05-24T01:09:20.897Z,99.8768
2023-05-24T01:10:21.137Z,99.8684
2023-05-24T01:11:21.681Z,99.8847
2023-05-24T01:12:23.497Z,99.9049
2023-05-24T01:23:33.681Z,99.9799
2023-05-24T01:25:34.771Z,99.9980
2023-05-24T01:26:35.952Z,99.9999
2023-05-24T01:28:36.348Z,100.0000
2023-05-24T01:29:36.995Z,100.0000
2023-05-24T01:30:37.475Z,100.0000
2023-05-24T01:31:37.616Z,100.0000
2023-05-24T01:39:40.901Z,100.0000
2023-05-24T01:40:41.705Z,100.0000
2023-05-24T01:44:43.658Z,100.0000
2023-05-24T01:52:49.619Z,100.0000
2023-05-24T01:53:50.139Z,100.0000
2023-05-24T01:54:51.007Z,100.0000
2023-05-24T01:55:51.785Z,100.0000
2023-05-24T01:56:52.240Z,100.0000
2023-05-24T01:57:52.386Z,100.0000
2023-05-24T01:58:53.257Z,100.0000
2023-05-24T02:00:53.699Z,100.0000
2023-05-24T02:01:53.873Z,100.0000
2023-05-24T02:12:02.096Z,100.0000
2023-05-24T02:13:03.842Z,100.0000
2023-05-24T02:15:03.959Z,100.0000
2023-05-24T02:16:04.768Z,100.0000
2023-05-24T02:21:08.220Z,100.0000
2023-05-24T02:22:08.242Z,100.0000
2023-05-24T02:23:08.493Z,100.0000
2023-05-24T02:24:09.163Z,100.0000
2023-05-24T02:25:09.777Z,100.0000
2023-05-24T02:26:09.789Z,100.0000
2023-05-24T02:27:11.092Z,100.0000
2023-05-24T02:29:10.168Z,100.0000
2023-05-24T02:30:10.629Z,100.0000
2023-05-24T02:31:11.944Z,100.0000
2023-05-24T02:32:12.054Z,100.0000
2023-05-24T02:33:13.038Z,100.0000
2023-05-24T02:34:13.332Z,100.0000
2023-05-24T02:35:14.408Z,100.0000
2023-05-24T02:36:15.309Z,100.0000
2023-05-24T02:37:16.079Z,100.0000
2023-05-24T02:38:17.008Z,100.0000
2023-05-24T02:39:17.768Z,100.0000
2023-05-24T02:40:18.603Z,100.0000
2023-05-24T02:41:19.153Z,100.0000
2023-05-24T02:42:20.930Z,100.0000
2023-05-24T02:43:21.259Z,100.0000
2023-05-24T02:44:21.342Z,100.0000
2023-05-24T02:45:22.067Z,100.0000
2023-05-24T02:47:21.735Z,100.0000
2023-05-24T02:48:22.166Z,100.0000
2023-05-24T02:49:22.699Z,100.0000
2023-05-24T02:50:23.746Z,100.0000
2023-05-24T02:51:24.385Z,100.0000
2023-05-24T02:52:24.494Z,100.0000
2023-05-24T02:53:24.834Z,100.0000
2023-05-24T02:54:26.801Z,100.0000
2023-05-24T02:55:26.852Z,100.0000
2023-05-24T02:56:27.960Z,100.0000
2023-05-24T02:57:28.908Z,100.0000
2023-05-24T02:58:30.429Z,100.0000
2023-05-24T02:59:30.925Z,100.0000
2023-05-24T03:00:31.420Z,100.0000
2023-05-24T03:01:32.972Z,100.0000
2023-05-24T03:02:34.339Z,100.0000
2023-05-24T03:03:35.198Z,100.0000
2023-05-24T03:04:35.795Z,100.0000
2023-05-24T03:05:36.811Z,100.0000
2023-05-24T03:06:37.786Z,100.0000
2023-05-24T03:07:38.945Z,100.0000
2023-05-24T03:08:39.931Z,100.0000
2023-05-24T03:09:40.022Z,100.0000
2023-05-24T03:10:41.312Z,100.0000
2023-05-24T03:11:42.124Z,100.0000
2023-05-24T03:12:42.464Z,100.0000
2023-05-24T03:13:43.700Z,100.0000
2023-05-24T03:14:43.978Z,100.0000
2023-05-24T03:15:45.381Z,100.0000
2023-05-24T03:16:47.423Z,100.0000
2023-05-24T03:18:46.991Z,100.0000
2023-05-24T03:19:47.465Z,100.0000
2023-05-24T03:20:48.814Z,100.0000
2023-05-24T03:21:49.318Z,100.0000
2023-05-24T03:22:49.848Z,100.0000
2023-05-24T03:24:52.584Z,100.0000
2023-05-24T03:25:52.779Z,100.0000
2023-05-24T03:26:53.210Z,100.0000
2023-05-24T03:27:54.146Z,100.0000
2023-05-24T03:28:54.419Z,100.0000
2023-05-24T03:29:55.320Z,100.0000
2023-05-24T03:30:56.507Z,100.0000
2023-05-24T03:31:57.779Z,100.0000
2023-05-24T03:32:58.626Z,100.0000
2023-05-24T03:34:00.731Z,100.0000
2023-05-24T03:36:00.841Z,100.0000
2023-05-24T03:37:01.169Z,100.0000
2023-05-24T03:38:01.515Z,100.0000
2023-05-24T03:39:02.319Z,100.0000
2023-05-24T03:40:03.288Z,100.0000
2023-05-24T03:41:04.250Z,100.0000
2023-05-24T03:42:04.861Z,100.0000
2023-05-24T03:43:05.301Z,100.0000
2023-05-24T03:44:05.653Z,100.0000
2023-05-24T03:45:06.855Z,100.0000
2023-05-24T03:46:08.025Z,100.0000
2023-05-24T03:47:08.932Z,100.0000
2023-05-24T03:48:09.955Z,100.0000
2023-05-24T03:49:10.292Z,100.0000
2023-05-24T03:50:10.450Z,100.0000
2023-05-24T03:51:11.120Z,100.0000
2023-05-24T03:52:10.807Z,100.0000
2023-05-24T03:53:10.894Z,100.0000
2023-05-24T03:54:11.881Z,100.0000
2023-05-24T03:55:11.995Z,100.0000
2023-05-24T03:56:12.996Z,100.0000
2023-05-24T03:57:13.526Z,100.0000
2023-05-24T03:58:14.476Z,100.0000
2023-05-24T03:59:15.213Z,100.0000
2023-05-24T04:00:15.214Z,100.0000
2023-05-24T04:01:25.454Z,100.0000
2023-05-24T04:02:17.444Z,100.0000
2023-05-24T04:03:18.483Z,100.0000
2023-05-24T04:04:19.060Z,100.0000
2023-05-24T04:05:19.898Z,100.0000
2023-05-24T04:06:20.744Z,100.0000
2023-05-24T04:07:21.415Z,100.0000
2023-05-24T04:08:22.201Z,100.0000
2023-05-24T04:09:22.832Z,100.0000
2023-05-24T04:10:22.910Z,100.0000
2023-05-24T04:11:23.715Z,100.0000
2023-05-24T04:12:23.784Z,100.0000
2023-05-24T04:13:24.559Z,100.0000
2023-05-24T04:14:25.777Z,100.0000
2023-05-24T04:15:26.680Z,100.0000
2023-05-24T04:16:27.203Z,100.0000
2023-05-24T04:17:27.893Z,100.0000
2023-05-24T04:19:28.652Z,100.0000
2023-05-24T04:20:28.910Z,100.0000
2023-05-24T04:21:29.127Z,100.0000
2023-05-24T04:22:30.059Z,100.0000
2023-05-24T04:23:31.482Z,100.0000
2023-05-24T04:24:32.399Z,100.0000
2023-05-24T04:25:33.424Z,100.0000
2023-05-24T04:26:33.739Z,100.0000
2023-05-24T04:27:34.574Z,100.0000
2023-05-24T04:28:34.550Z,100.0000
2023-05-24T04:29:35.139Z,100.0000
2023-05-24T04:30:35.821Z,100.0000
2023-05-24T04:31:36.735Z,100.0000
2023-05-24T04:32:37.378Z,100.0000
2023-05-24T04:33:38.363Z,100.0000
2023-05-24T04:34:38.819Z,100.0000
2023-05-24T04:35:40.289Z,100.0000
2023-05-24T04:36:41.449Z,100.0000
2023-05-24T04:37:42.592Z,100.0000
2023-05-24T04:38:42.643Z,100.0000
2023-05-24T04:39:43.543Z,100.0000
2023-05-24T04:40:44.313Z,100.0000
2023-05-24T04:41:44.395Z,100.0000
2023-05-24T04:42:45.548Z,100.0000
2023-05-24T04:43:46.410Z,100.0000
2023-05-24T04:44:46.643Z,100.0000
2023-05-24T04:45:46.780Z,100.0000
2023-05-24T04:46:47.324Z,100.0000
2023-05-24T04:47:47.653Z,100.0000
2023-05-24T04:52:49.487Z,100.0000
2023-05-24T04:53:50.121Z,100.0000
2023-05-24T04:54:51.558Z,100.0000
2023-05-24T04:55:51.625Z,100.0000
2023-05-24T04:56:52.764Z,100.0000
2023-05-24T04:57:53.229Z,100.0000
2023-05-24T04:58:53.371Z,100.0000
2023-05-24T04:59:54.988Z,100.0000
2023-05-24T05:00:55.616Z,100.0000
2023-05-24T05:01:55.742Z,100.0000
2023-05-24T05:02:56.734Z,100.0000
2023-05-24T05:03:57.028Z,100.0000
2023-05-24T05:04:57.787Z,100.0000
2023-05-24T05:05:57.999Z,100.0000
2023-05-24T05:09:00.046Z,100.0000
2023-05-24T05:10:00.506Z,100.0000
2023-05-24T05:11:01.543Z,100.0000
2023-05-24T05:12:01.787Z,100.0000
2023-05-24T05:13:02.532Z,100.0000
2023-05-24T05:14:03.087Z,100.0000
2023-05-24T05:15:03.462Z,100.0000
2023-05-24T05:25:07.020Z,99.9949
2023-05-24T05:26:08.540Z,99.9737
2023-05-24T05:31:10.675Z,99.9303
2023-05-24T05:42:19.700Z,99.9201
2023-05-24T05:45:22.979Z,99.9123
2023-05-24T05:46:24.064Z,99.8813
2023-05-24T05:48:24.425Z,99.8367
2023-05-24T05:49:25.557Z,99.8372
2023-05-24T05:50:26.489Z,99.7745
2023-05-24T05:51:27.110Z,99.7659
2023-05-24T05:52:27.327Z,99.7578
2023-05-24T05:53:29.773Z,99.7167
2023-05-24T05:54:31.465Z,99.7154
2023-05-24T05:55:32.061Z,99.6756
2023-05-24T05:56:33.106Z,99.6433
2023-05-24T05:57:33.723Z,99.6320
2023-05-24T05:58:33.876Z,99.6386
2023-05-24T06:05:39.494Z,99.4745
2023-05-24T06:06:40.447Z,99.4954
2023-05-24T06:07:41.693Z,99.4771
2023-05-24T06:08:42.959Z,99.3946
2023-05-24T06:09:44.386Z,99.4106
2023-05-24T06:10:45.641Z,99.4223
2023-05-24T06:11:47.406Z,99.2679
2023-05-24T06:12:47.565Z,99.1870
2023-05-24T06:13:48.050Z,99.0939
2023-05-24T06:14:49.692Z,99.0195
2023-05-24T06:15:50.724Z,98.9712
2023-05-24T06:16:51.176Z,98.9216
2023-05-24T06:17:51.757Z,98.9267
2023-05-24T06:19:04.765Z,98.9238
2023-05-24T06:19:53.239Z,98.8352
2023-05-24T06:21:53.856Z,98.5778
2023-05-24T06:24:55.564Z,98.4464
2023-05-24T06:37:05.453Z,98.8771
2023-05-24T06:38:06.078Z,99.0596
2023-05-24T06:39:06.366Z,99.1413
2023-05-24T06:40:07.431Z,99.1576
2023-05-24T06:41:08.741Z,99.1796
2023-05-24T06:42:09.632Z,99.1487
2023-05-24T06:43:09.881Z,99.1440
2023-05-24T06:44:10.325Z,99.1422
2023-05-24T06:45:10.325Z,99.0981
2023-05-24T06:46:11.021Z,99.1100
2023-05-24T06:47:11.780Z,99.0339
2023-05-24T06:48:12.880Z,99.0666
2023-05-24T06:49:13.555Z,98.9835
2023-05-24T06:50:14.110Z,98.8931
2023-05-24T06:51:15.042Z,98.7546
2023-05-24T06:52:15.680Z,98.7426
2023-05-24T06:55:17.992Z,98.1663
2023-05-24T06:56:18.670Z,98.0825
2023-05-24T06:57:19.829Z,97.9153
2023-05-24T06:58:20.571Z,97.3459
2023-05-24T06:59:21.148Z,96.5554
2023-05-24T07:00:22.031Z,96.5012
2023-05-24T07:01:22.691Z,96.1561
2023-05-24T07:02:23.012Z,95.7008
2023-05-24T07:03:24.314Z,95.5717
2023-05-24T07:09:27.556Z,92.7682
2023-05-24T07:13:29.112Z,94.4491
2023-05-24T07:14:29.754Z,94.6780
2023-05-24T07:15:30.690Z,94.8809
2023-05-24T07:16:30.290Z,95.1770
2023-05-24T07:17:31.102Z,95.6160
2023-05-24T07:18:32.220Z,95.2771
2023-05-24T07:19:33.299Z,94.6556
2023-05-24T07:20:34.570Z,94.8596
2023-05-24T07:21:35.576Z,95.3346
2023-05-24T07:22:36.699Z,95.5983
2023-05-24T07:23:37.375Z,95.3944
2023-05-24T07:24:38.053Z,95.7997
2023-05-24T07:25:38.371Z,96.0575
2023-05-24T07:26:39.603Z,95.8754
2023-05-24T07:27:40.613Z,96.1538
2023-05-24T07:29:41.293Z,96.4520
2023-05-24T07:30:42.727Z,96.4395
2023-05-24T07:32:42.164Z,96.8325
2023-05-24T07:33:43.002Z,97.1031
2023-05-24T07:34:43.185Z,97.0394
2023-05-24T07:35:44.888Z,96.9440
2023-05-24T07:36:45.720Z,96.6024
2023-05-24T07:37:46.318Z,96.7345
2023-05-24T07:38:46.454Z,96.5523
2023-05-24T07:39:46.919Z,96.6050
2023-05-24T07:40:48.153Z,96.7188
2023-05-24T07:41:48.665Z,96.6575
2023-05-24T07:42:49.326Z,96.6729
2023-05-24T07:43:49.500Z,96.5906
2023-05-24T07:44:50.631Z,96.4805
2023-05-24T07:45:52.474Z,96.4543
2023-05-24T07:47:54.475Z,96.5963
2023-05-24T07:48:53.047Z,96.6062
2023-05-24T07:49:53.284Z,96.0712
2023-05-24T07:51:55.495Z,95.9197
2023-05-24T07:52:55.600Z,95.6515
2023-05-24T07:53:56.124Z,95.8897
2023-05-24T07:54:56.694Z,96.0018
2023-05-24T07:55:57.699Z,96.4906
2023-05-24T07:57:57.290Z,96.0694
2023-05-24T07:58:58.630Z,95.6889
2023-05-24T07:59:59.533Z,95.6257
2023-05-24T08:01:01.184Z,95.8087
2023-05-24T08:02:01.640Z,95.6475
2023-05-24T08:03:02.646Z,95.5004
2023-05-24T08:08:05.587Z,95.1580
2023-05-24T08:09:05.627Z,94.4992
2023-05-24T08:10:06.413Z,94.0784
2023-05-24T08:13:10.151Z,93.0540
2023-05-24T08:14:11.858Z,93.1523
2023-05-24T08:15:12.686Z,93.4902
2023-05-24T08:16:14.583Z,93.8328
2023-05-24T08:17:15.188Z,93.4614
2023-05-24T08:19:15.683Z,93.6529
2023-05-24T08:20:16.235Z,94.1473
2023-05-24T08:21:17.491Z,93.7861
2023-05-24T08:22:17.893Z,93.4195
2023-05-24T08:23:18.915Z,93.0138
2023-05-24T08:32:23.905Z,91.3542
2023-05-24T08:33:24.950Z,91.1264
2023-05-24T08:35:27.455Z,90.5086
2023-05-24T08:36:28.369Z,91.1567
2023-05-24T08:37:28.530Z,90.2149
2023-05-24T08:38:29.356Z,90.4917
2023-05-24T08:39:29.393Z,89.6896
2023-05-24T08:40:31.410Z,90.0475
2023-05-24T08:45:32.424Z,89.7572
2023-05-24T08:55:40.294Z,91.2260
2023-05-24T08:56:40.729Z,90.1388
2023-05-24T08:57:41.975Z,89.9308
2023-05-24T08:58:43.066Z,91.1305
2023-05-24T08:59:43.628Z,91.1566
2023-05-24T09:00:43.753Z,91.4552
2023-05-24T09:01:44.318Z,91.6041
2023-05-24T09:02:44.652Z,91.2392
2023-05-24T09:03:45.307Z,91.5083
2023-05-24T09:06:46.745Z,90.4759
2023-05-24T09:07:46.928Z,90.0925
2023-05-24T09:08:47.967Z,91.4103
2023-05-24T09:09:49.418Z,90.6804
2023-05-24T09:10:55.571Z,90.5098
2023-05-24T09:11:50.855Z,92.4786
2023-05-24T09:18:52.991Z,91.7333
2023-05-24T09:19:53.384Z,90.7349
2023-05-24T09:20:53.573Z,90.7898
2023-05-24T09:21:54.625Z,89.3978
2023-05-24T09:22:55.880Z,89.5031
2023-05-24T09:25:57.039Z,89.5780
2023-05-24T09:26:57.220Z,90.1506
2023-05-24T09:27:57.832Z,89.6334
2023-05-24T09:28:58.722Z,89.8795
2023-05-24T09:29:59.874Z,89.5792
2023-05-24T09:31:00.540Z,88.0969
2023-05-24T09:32:00.643Z,89.9135
2023-05-24T09:33:01.460Z,89.2434
2023-05-24T09:34:01.716Z,89.3809
2023-05-24T09:35:01.908Z,88.2949
2023-05-24T09:36:02.200Z,90.0757
2023-05-24T09:37:03.986Z,88.9576
2023-05-24T09:38:04.183Z,87.9872
2023-05-24T09:39:04.930Z,88.6033
2023-05-24T09:40:05.643Z,89.0676
2023-05-24T09:45:07.185Z,87.7159
2023-05-24T09:46:07.743Z,87.6261
2023-05-24T09:47:08.341Z,86.8175
2023-05-24T09:48:08.836Z,86.4918
2023-05-24T09:49:09.179Z,86.6922
2023-05-24T09:50:10.414Z,86.5614
2023-05-24T09:51:11.223Z,86.3877
2023-05-24T09:52:11.328Z,86.9366
2023-05-24T09:53:11.568Z,86.9501
2023-05-24T09:54:12.466Z,86.1742
2023-05-24T09:55:13.328Z,84.7717
2023-05-24T09:56:14.863Z,85.3294
2023-05-24T09:57:15.571Z,86.6161
2023-05-24T09:58:15.758Z,85.4366
2023-05-24T09:59:17.097Z,85.4067
2023-05-24T10:00:18.273Z,84.7820
2023-05-24T10:01:19.218Z,85.4001
2023-05-24T10:02:19.115Z,85.3223
2023-05-24T10:03:19.795Z,84.3479
2023-05-24T10:04:19.902Z,86.1744
2023-05-24T10:05:19.936Z,83.2224
2023-05-24T10:06:21.002Z,84.5791
2023-05-24T10:07:22.125Z,82.8977
2023-05-24T10:08:23.196Z,83.2245
2023-05-24T10:09:24.112Z,83.1670
2023-05-24T10:10:25.162Z,81.6259
2023-05-24T10:11:26.205Z,81.4395
2023-05-24T10:12:27.357Z,81.4630
2023-05-24T10:13:28.588Z,81.9709
2023-05-24T10:14:29.631Z,81.3521
2023-05-24T10:15:30.706Z,83.1555
2023-05-24T10:16:32.090Z,82.4548
2023-05-24T10:17:33.138Z,82.2790
2023-05-24T10:18:33.063Z,82.9623
2023-05-24T10:19:34.089Z,82.1144
2023-05-24T10:20:34.169Z,82.3849
2023-05-24T10:21:35.359Z,82.5532
2023-05-24T10:22:36.666Z,83.0828
2023-05-24T10:23:37.520Z,82.7948
2023-05-24T10:24:38.603Z,83.3711
2023-05-24T10:25:39.637Z,82.7157
2023-05-24T10:26:40.779Z,82.6834
2023-05-24T10:27:41.812Z,82.9990
2023-05-24T10:28:42.926Z,82.9186
2023-05-24T10:29:43.506Z,82.5421
2023-05-24T10:30:44.152Z,83.4473
2023-05-24T10:31:44.646Z,84.9514
2023-05-24T10:32:44.581Z,82.9432
2023-05-24T10:33:45.700Z,83.6667
2023-05-24T10:34:46.456Z,83.2741
2023-05-24T10:35:47.484Z,83.2981
2023-05-24T10:36:47.946Z,84.0376
2023-05-24T10:37:49.173Z,83.6743
2023-05-24T10:38:50.443Z,84.8270
2023-05-24T10:40:52.544Z,84.4762
2023-05-24T10:41:53.419Z,84.0787
2023-05-24T10:42:54.504Z,84.3342
2023-05-24T10:44:08.801Z,85.0697
2023-05-24T10:44:56.411Z,84.5195
2023-05-24T10:45:57.356Z,84.7898
2023-05-24T10:46:58.527Z,84.5030
2023-05-24T10:47:59.774Z,85.5787
2023-05-24T10:49:00.918Z,84.9752
2023-05-24T10:50:01.975Z,84.9105
2023-05-24T10:51:03.083Z,85.2704
2023-05-24T10:52:04.051Z,86.2057
2023-05-24T10:53:05.288Z,86.2718
2023-05-24T10:54:08.880Z,86.1155
2023-05-24T10:55:06.765Z,85.8432
2023-05-24T10:56:07.992Z,86.2122
2023-05-24T10:57:09.251Z,85.6257
2023-05-24T10:58:10.125Z,85.4049
2023-05-24T10:59:11.194Z,85.7720
2023-05-24T11:00:15.505Z,85.6640
2023-05-24T11:01:12.340Z,85.5307
2023-05-24T11:02:12.424Z,86.2936
2023-05-24T11:03:12.546Z,86.6478
2023-05-24T11:04:12.491Z,86.6087
2023-05-24T11:05:13.517Z,86.7166
2023-05-24T11:06:14.235Z,86.0736
2023-05-24T11:07:15.254Z,86.1473
2023-05-24T11:08:16.246Z,87.8656
2023-05-24T11:09:17.281Z,87.6848
2023-05-24T11:10:18.163Z,87.1998
2023-05-24T11:11:24.506Z,86.6901
2023-05-24T11:12:18.639Z,86.4671
2023-05-24T11:13:19.745Z,86.5505
2023-05-24T11:14:20.975Z,86.7310
2023-05-24T11:15:22.102Z,87.3154
2023-05-24T11:16:23.283Z,85.3779
2023-05-24T11:17:24.317Z,85.7843
2023-05-24T11:18:25.395Z,85.8613
2023-05-24T11:19:26.326Z,85.7435
2023-05-24T11:20:27.567Z,85.1068
2023-05-24T11:21:28.034Z,84.9961
2023-05-24T11:23:30.156Z,85.0089
2023-05-24T11:24:31.205Z,85.3313
2023-05-24T11:25:32.209Z,85.7303
2023-05-24T11:26:33.156Z,85.3302
2023-05-24T11:27:33.965Z,84.9865
2023-05-24T11:28:35.224Z,85.1650
2023-05-24T11:42:46.721Z,83.2302
2023-05-24T11:43:47.761Z,83.6568
2023-05-24T11:44:48.775Z,83.4262
2023-05-24T11:45:49.837Z,84.3855
2023-05-24T11:55:58.291Z,83.0274
2023-05-24T11:56:58.473Z,82.2315
2023-05-24T11:57:59.498Z,82.2986
2023-05-24T12:02:02.062Z,80.4626
2023-05-24T12:03:02.311Z,80.3961
2023-05-24T12:04:02.885Z,79.5254
2023-05-24T12:05:03.855Z,80.0892
2023-05-24T12:06:04.907Z,80.3849
2023-05-24T12:07:06.034Z,80.4364
2023-05-24T12:08:06.926Z,80.9952
2023-05-24T12:09:07.953Z,80.5004
2023-05-24T12:10:08.094Z,79.9609
2023-05-24T12:11:08.396Z,80.8710
2023-05-24T12:12:09.464Z,81.8797
2023-05-24T12:13:11.309Z,80.2560
2023-05-24T12:14:11.447Z,79.3148
2023-05-24T12:15:12.145Z,78.6099
2023-05-24T12:16:12.801Z,77.1829
2023-05-24T12:17:13.056Z,77.0081
2023-05-24T12:18:13.257Z,77.0579
2023-05-24T12:20:15.028Z,77.3279
2023-05-24T12:21:16.097Z,77.3547
2023-05-24T12:22:16.807Z,76.7838
2023-05-24T12:23:17.759Z,75.9380
2023-05-24T12:24:19.057Z,75.7173
2023-05-24T12:25:19.097Z,75.3672
2023-05-24T12:26:20.036Z,76.7524
2023-05-24T12:27:21.112Z,76.1993
2023-05-24T12:28:21.599Z,75.6463
2023-05-24T12:29:22.700Z,74.8334
2023-05-24T12:30:23.675Z,75.4677
2023-05-24T12:31:24.773Z,73.0819
2023-05-24T12:32:25.161Z,74.7575
2023-05-24T12:33:25.407Z,73.4889
2023-05-24T12:34:26.468Z,73.9045
2023-05-24T12:35:27.573Z,72.9133
2023-05-24T12:36:27.713Z,73.8266
2023-05-24T12:37:28.685Z,74.4656
2023-05-24T12:38:29.735Z,75.0551
2023-05-24T12:39:30.708Z,73.5377
2023-05-24T12:40:31.715Z,72.0073
2023-05-24T12:41:32.555Z,73.8405
2023-05-24T12:42:33.556Z,75.3428
2023-05-24T12:43:34.328Z,74.1280
2023-05-24T12:44:35.378Z,74.0559
2023-05-24T12:45:36.422Z,75.0228
2023-05-24T12:46:37.589Z,74.5046
2023-05-24T12:47:38.952Z,74.6510
2023-05-24T12:48:39.923Z,74.8445
2023-05-24T12:49:40.901Z,74.7527
2023-05-24T12:50:42.277Z,74.9127
2023-05-24T12:51:42.335Z,76.0548
2023-05-24T12:52:43.226Z,75.6159
2023-05-24T12:53:44.317Z,75.2021
2023-05-24T12:54:45.536Z,75.5707
2023-05-24T12:55:46.531Z,76.2311
2023-05-24T13:10:59.763Z,78.4175
2023-05-24T13:12:00.705Z,79.4538
2023-05-24T13:14:02.594Z,77.3233
2023-05-24T13:15:03.673Z,77.1834
2023-05-24T13:16:04.712Z,78.3680
2023-05-24T13:17:05.958Z,78.5175
2023-05-24T13:19:07.707Z,82.0184
2023-05-24T13:20:07.839Z,80.4945
2023-05-24T13:21:11.363Z,80.9170
2023-05-24T13:22:09.424Z,80.2308
2023-05-24T13:23:10.511Z,81.8158
2023-05-24T13:24:11.563Z,80.5815
2023-05-24T13:25:12.254Z,80.3834
2023-05-24T13:26:13.035Z,81.2193
2023-05-24T13:27:14.042Z,81.0625
2023-05-24T13:28:15.007Z,81.0578
2023-05-24T13:30:16.732Z,80.2837
2023-05-24T13:31:17.962Z,81.1954
2023-05-24T13:32:18.584Z,79.4250
2023-05-24T13:33:19.244Z,80.8428
2023-05-24T13:34:19.479Z,80.1599
2023-05-24T13:35:20.555Z,79.6730
2023-05-24T13:36:21.510Z,81.1040
2023-05-24T13:37:22.529Z,82.6994
2023-05-24T13:38:23.479Z,82.1994
2023-05-24T13:39:23.993Z,80.9085
2023-05-24T13:40:25.156Z,82.0863
2023-05-24T13:41:26.293Z,83.3353
2023-05-24T13:42:26.361Z,81.1456
2023-05-24T13:43:26.330Z,82.2295
2023-05-24T13:44:27.456Z,82.2128
2023-05-24T13:45:28.491Z,82.9121
2023-05-24T13:46:29.678Z,82.6959
2023-05-24T13:47:39.415Z,81.6773
2023-05-24T13:48:30.816Z,82.3950
2023-05-24T13:49:31.684Z,82.9695
2023-05-24T13:50:32.668Z,83.2108
2023-05-24T13:51:33.767Z,83.2927
2023-05-24T13:52:34.058Z,83.5901
2023-05-24T13:53:35.267Z,83.1869
2023-05-24T13:54:35.315Z,83.9151
2023-05-24T13:55:36.277Z,82.8051
2023-05-24T13:56:37.344Z,82.8348
2023-05-24T13:58:39.545Z,83.0600
2023-05-24T13:59:40.530Z,83.4435
2023-05-24T14:00:41.782Z,83.7551
2023-05-24T14:01:42.167Z,82.9800
2023-05-24T14:02:43.092Z,84.1677
2023-05-24T14:03:44.076Z,83.7032
2023-05-24T14:04:45.093Z,84.2251
2023-05-24T14:05:45.802Z,83.8116
2023-05-24T14:06:45.850Z,83.5019
2023-05-24T14:07:47.033Z,83.6292
2023-05-24T14:08:47.210Z,84.6443
2023-05-24T14:09:48.197Z,83.4911
2023-05-24T14:10:49.431Z,84.4686
2023-05-24T14:11:50.444Z,84.2870
2023-05-24T14:13:07.919Z,84.2643
2023-05-24T14:15:53.252Z,83.6326
2023-05-24T14:16:54.386Z,84.8683
2023-05-24T14:17:55.525Z,85.5477
2023-05-24T14:18:56.277Z,84.4243
2023-05-24T14:19:57.295Z,85.7104
2023-05-24T14:20:57.864Z,85.1205
2023-05-24T14:21:58.915Z,85.3025
2023-05-24T14:22:59.941Z,85.6280
2023-05-24T14:24:00.947Z,84.4660
2023-05-24T14:25:01.964Z,83.0038
2023-05-24T14:26:02.334Z,84.4452
2023-05-24T14:27:03.408Z,83.3020
2023-05-24T14:28:04.400Z,82.8383
2023-05-24T14:29:05.419Z,83.9457
2023-05-24T14:30:06.437Z,83.0009
2023-05-24T14:31:07.421Z,82.9559
2023-05-24T14:32:08.860Z,83.5229
2023-05-24T14:33:09.895Z,82.4014
2023-05-24T14:34:10.754Z,82.2443
2023-05-24T14:35:11.678Z,81.8531
2023-05-24T14:36:12.693Z,81.4824
2023-05-24T14:37:13.668Z,82.1744
2023-05-24T14:38:14.750Z,82.6982
2023-05-24T14:39:15.793Z,80.7817
2023-05-24T14:42:18.815Z,80.7712
2023-05-24T14:43:19.775Z,81.5250
2023-05-24T14:44:20.833Z,79.4424
2023-05-24T14:45:21.783Z,80.3769
2023-05-24T14:46:22.358Z,80.9603
2023-05-24T14:47:22.709Z,82.0159
2023-05-24T14:48:23.745Z,80.0312
2023-05-24T14:49:24.710Z,80.5090
2023-05-24T14:50:25.673Z,81.9286
2023-05-24T14:51:26.771Z,82.5862
2023-05-24T14:52:27.918Z,81.0394
2023-05-24T14:53:28.732Z,80.6331
2023-05-24T14:54:29.744Z,80.8127
2023-05-24T14:55:30.557Z,82.5000
2023-05-24T14:56:31.533Z,82.5532
2023-05-24T14:57:31.687Z,82.1004
2023-05-24T14:58:32.759Z,81.3485
2023-05-24T14:59:33.829Z,82.1088
2023-05-24T15:00:33.934Z,82.0997
2023-05-24T15:01:34.962Z,82.9810
2023-05-24T15:02:35.030Z,82.1132
2023-05-24T15:03:35.394Z,82.9259
2023-05-24T15:04:36.387Z,82.8526
2023-05-24T15:05:37.473Z,81.7737
2023-05-24T15:06:38.490Z,81.9116
2023-05-24T15:07:39.427Z,82.6855
2023-05-24T15:08:40.561Z,83.1838
2023-05-24T15:09:41.622Z,82.0630
2023-05-24T15:10:42.936Z,83.3208
2023-05-24T15:11:42.813Z,84.6852
2023-05-24T15:12:43.737Z,84.0982
2023-05-24T15:13:44.701Z,82.5439
2023-05-24T15:14:45.730Z,82.8400
2023-05-24T15:15:46.690Z,83.1916
2023-05-24T15:16:47.777Z,83.1808
2023-05-24T15:17:48.931Z,82.8106
2023-05-24T15:18:50.068Z,82.8684
2023-05-24T15:19:51.158Z,82.7568
2023-05-24T15:20:52.449Z,83.7435
2023-05-24T15:21:53.586Z,84.2328
2023-05-24T15:22:54.449Z,84.1395
2023-05-24T15:23:55.382Z,83.1645
2023-05-24T15:24:56.408Z,82.9463
2023-05-24T15:25:57.421Z,84.6724
2023-05-24T15:26:58.572Z,83.0859
2023-05-24T15:27:59.535Z,83.0642
2023-05-24T15:28:59.927Z,83.0257
2023-05-24T15:30:00.745Z,84.0758
2023-05-24T15:31:00.997Z,83.6392
2023-05-24T15:32:01.092Z,85.1781
2023-05-24T15:33:02.217Z,83.7953
2023-05-24T15:34:03.349Z,82.8652
2023-05-24T15:35:04.399Z,83.5055
2023-05-24T15:36:05.238Z,85.0744
2023-05-24T15:37:06.097Z,83.5952
2023-05-24T15:38:07.330Z,82.4537
2023-05-24T15:39:08.372Z,82.7420
2023-05-24T15:40:09.284Z,84.1735
2023-05-24T15:41:10.304Z,86.4267
2023-05-24T15:42:11.358Z,86.9838
2023-05-24T15:43:12.352Z,86.3399
2023-05-24T15:44:13.182Z,83.5639
2023-05-24T15:45:14.271Z,84.9713
2023-05-24T15:46:15.329Z,84.1767
2023-05-24T15:47:16.487Z,85.5726
2023-05-24T15:48:17.386Z,83.5723
2023-05-24T15:49:18.429Z,84.5610
2023-05-24T15:50:28.435Z,82.1928
2023-05-24T15:51:46.996Z,82.0745
2023-05-24T15:52:20.845Z,81.2382
2023-05-24T15:53:21.987Z,82.3027
2023-05-24T15:54:22.958Z,82.8405
2023-05-24T15:55:23.987Z,84.7188
2023-05-24T15:56:25.077Z,83.7570
2023-05-24T15:57:26.085Z,83.2931
2023-05-24T15:58:27.131Z,84.5982
2023-05-24T15:59:27.994Z,84.1359
2023-05-24T16:00:28.912Z,84.7064
2023-05-24T16:01:30.008Z,85.6208
2023-05-24T16:02:30.094Z,85.6531
2023-05-24T16:03:30.383Z,84.7816
2023-05-24T16:04:30.930Z,81.9058
2023-05-24T16:05:32.057Z,81.4777
2023-05-24T16:06:33.128Z,82.6784
2023-05-24T16:07:34.215Z,85.4324
2023-05-24T16:09:36.028Z,83.8930
2023-05-24T16:10:36.997Z,86.1744
2023-05-24T16:11:37.930Z,85.8814
2023-05-24T16:12:39.010Z,85.3601